createdAt,value
2023-05-25T00:01:49.149Z,11.27
2023-05-25T00:04:18.631Z,11.25
2023-05-25T00:06:47.398Z,11.20
2023-05-25T00:09:15.007Z,11.24
2023-05-25T00:11:42.568Z,11.16
2023-05-25T00:14:10.142Z,11.15
2023-05-25T00:16:37.961Z,11.16
2023-05-25T00:19:10.476Z,11.13
2023-05-25T00:21:41.401Z,11.13
2023-05-25T00:24:09.537Z,11.17
2023-05-25T00:26:37.160Z,11.14
2023-05-25T00:29:04.972Z,11.16
2023-05-25T00:31:33.557Z,11.12
2023-05-25T00:34:01.261Z,11.16
2023-05-25T00:36:30.080Z,11.17
2023-05-25T00:38:57.632Z,11.11
2023-05-25T00:41:26.303Z,11.10
2023-05-25T00:43:53.833Z,11.04
2023-05-25T00:46:22.361Z,11.00
2023-05-25T00:48:50.041Z,11.01
2023-05-25T00:51:17.593Z,10.99
2023-05-25T00:53:46.466Z,10.98
2023-05-25T00:56:16.508Z,10.99
2023-05-25T00:58:44.110Z,10.96
2023-05-25T01:01:12.724Z,10.92
2023-05-25T01:03:41.457Z,10.88
2023-05-25T01:06:11.962Z,10.86
2023-05-25T01:08:41.790Z,10.88
2023-05-25T01:11:12.734Z,10.85
2023-05-25T01:13:41.870Z,10.87
2023-05-25T01:16:10.527Z,10.88
2023-05-25T01:18:41.747Z,10.86
2023-05-25T01:21:13.989Z,10.87
2023-05-25T01:23:44.124Z,10.90
2023-05-25T01:26:14.860Z,10.91
2023-05-25T01:28:46.429Z,10.93
2023-05-25T01:31:15.829Z,10.95
2023-05-25T01:33:44.074Z,10.83
2023-05-25T01:36:12.947Z,10.88
2023-05-25T01:38:40.853Z,10.87
2023-05-25T01:41:08.403Z,10.89
2023-05-25T01:43:36.021Z,10.88
2023-05-25T01:46:09.339Z,10.83
2023-05-25T01:48:43.113Z,10.77
2023-05-25T01:51:19.279Z,10.77
2023-05-25T01:53:50.206Z,10.72
2023-05-25T01:56:18.207Z,10.68
2023-05-25T01:58:46.614Z,10.69
2023-05-25T02:01:15.881Z,10.65
2023-05-25T02:03:44.741Z,10.64
2023-05-25T02:06:13.584Z,10.64
2023-05-25T02:08:41.085Z,10.61
2023-05-25T02:11:08.647Z,10.58
2023-05-25T02:13:36.236Z,10.55
2023-05-25T02:16:03.771Z,10.57
2023-05-25T02:18:31.286Z,10.52
2023-05-25T02:20:58.783Z,10.54
2023-05-25T02:23:27.651Z,10.54
2023-05-25T02:25:56.027Z,10.44
2023-05-25T02:28:23.559Z,10.37
2023-05-25T02:30:51.272Z,10.36
2023-05-25T02:33:20.224Z,10.30
2023-05-25T02:35:47.766Z,10.31
2023-05-25T02:38:15.625Z,10.34
2023-05-25T02:40:44.459Z,10.35
2023-05-25T02:43:11.943Z,10.31
2023-05-25T02:45:39.450Z,10.37
2023-05-25T02:48:07.005Z,10.25
2023-05-25T02:50:34.536Z,10.33
2023-05-25T02:53:02.034Z,10.34
2023-05-25T02:55:29.958Z,10.34
2023-05-25T02:57:59.964Z,10.27
2023-05-25T03:00:27.545Z,10.29
2023-05-25T03:02:55.053Z,10.20
2023-05-25T03:05:22.571Z,10.25
2023-05-25T03:07:50.150Z,10.15
2023-05-25T03:10:17.678Z,10.17
2023-05-25T03:12:45.269Z,10.18
2023-05-25T03:15:14.188Z,10.14
2023-05-25T03:17:41.711Z,10.10
2023-05-25T03:20:10.689Z,10.00
2023-05-25T03:22:38.287Z,9.97
2023-05-25T03:25:06.612Z,10.01
2023-05-25T03:27:34.123Z,9.99
2023-05-25T03:30:02.254Z,10.00
2023-05-25T03:32:32.302Z,10.03
2023-05-25T03:35:00.352Z,10.00
2023-05-25T03:37:27.961Z,10.00
2023-05-25T03:39:55.500Z,9.94
2023-05-25T03:42:23.150Z,9.96
2023-05-25T03:44:50.688Z,9.94
2023-05-25T03:47:18.231Z,9.98
2023-05-25T03:49:47.106Z,9.93
2023-05-25T03:52:14.655Z,9.81
2023-05-25T03:54:42.156Z,9.88
2023-05-25T03:57:09.674Z,9.91
2023-05-25T03:59:37.180Z,9.76
2023-05-25T04:02:04.890Z,9.77
2023-05-25T04:04:32.534Z,9.85
2023-05-25T04:07:01.561Z,9.91
2023-05-25T04:09:29.121Z,9.87
2023-05-25T04:11:56.669Z,9.87
2023-05-25T04:14:24.204Z,9.88
2023-05-25T04:16:52.012Z,9.86
2023-05-25T04:19:19.576Z,9.95
2023-05-25T04:21:47.031Z,9.95
2023-05-25T04:24:16.020Z,9.92
2023-05-25T04:26:43.639Z,9.97
2023-05-25T04:29:11.171Z,9.94
2023-05-25T04:31:39.116Z,9.97
2023-05-25T04:34:06.608Z,9.93
2023-05-25T04:36:34.148Z,9.95
2023-05-25T04:39:04.141Z,10.04
2023-05-25T04:41:33.835Z,10.05
2023-05-25T04:44:07.998Z,10.09
2023-05-25T04:46:38.819Z,10.09
2023-05-25T04:49:08.471Z,10.15
2023-05-25T04:51:36.936Z,10.13
2023-05-25T04:54:04.744Z,10.19
2023-05-25T04:56:33.610Z,10.25
2023-05-25T04:59:01.117Z,10.23
2023-05-25T05:01:29.261Z,10.28
2023-05-25T05:03:57.188Z,10.29
2023-05-25T05:06:25.692Z,10.32
2023-05-25T05:08:53.225Z,10.37
2023-05-25T05:11:20.753Z,10.43
2023-05-25T05:13:49.606Z,10.49
2023-05-25T05:16:17.265Z,10.50
2023-05-25T05:18:44.813Z,10.64
2023-05-25T05:21:12.535Z,10.72
2023-05-25T05:23:40.393Z,10.75
2023-05-25T05:26:10.966Z,10.86
2023-05-25T05:28:38.575Z,10.95
2023-05-25T05:31:08.177Z,11.03
2023-05-25T05:33:35.828Z,11.03
2023-05-25T05:36:04.650Z,11.11
2023-05-25T05:38:32.225Z,11.26
2023-05-25T05:40:59.845Z,11.33
2023-05-25T05:43:27.590Z,11.32
2023-05-25T05:45:55.175Z,11.40
2023-05-25T05:48:24.082Z,11.44
2023-05-25T05:50:52.447Z,11.59
2023-05-25T05:53:20.067Z,11.66
2023-05-25T05:55:49.598Z,11.74
2023-05-25T05:58:19.317Z,11.81
2023-05-25T06:00:46.848Z,11.92
2023-05-25T06:03:14.440Z,11.98
2023-05-25T06:05:43.500Z,12.09
2023-05-25T06:08:11.736Z,12.08
2023-05-25T06:10:39.345Z,12.17
2023-05-25T06:13:07.843Z,12.18
2023-05-25T06:15:36.277Z,12.28
2023-05-25T06:18:04.012Z,12.28
2023-05-25T06:20:31.579Z,12.31
2023-05-25T06:23:00.525Z,12.36
2023-05-25T06:25:28.094Z,12.48
2023-05-25T06:27:55.807Z,12.53
2023-05-25T06:30:23.501Z,12.51
2023-05-25T06:32:51.198Z,12.67
2023-05-25T06:35:20.873Z,12.80
2023-05-25T06:37:49.220Z,12.91
2023-05-25T06:40:18.144Z,12.90
2023-05-25T06:42:45.713Z,12.96
2023-05-25T06:45:14.232Z,13.07
2023-05-25T06:47:41.737Z,13.14
2023-05-25T06:50:10.379Z,13.22
2023-05-25T06:52:37.924Z,13.27
2023-05-25T06:55:06.055Z,13.31
2023-05-25T06:57:34.877Z,13.32
2023-05-25T07:00:03.048Z,13.33
2023-05-25T07:02:30.600Z,13.42
2023-05-25T07:04:58.174Z,13.44
2023-05-25T07:07:25.779Z,13.41
2023-05-25T07:09:53.356Z,13.58
2023-05-25T07:12:21.402Z,13.50
2023-05-25T07:14:50.340Z,13.55
2023-05-25T07:17:17.924Z,13.70
2023-05-25T07:19:45.526Z,13.77
2023-05-25T07:22:13.093Z,13.81
2023-05-25T07:24:40.643Z,13.82
2023-05-25T07:27:08.193Z,13.96
2023-05-25T07:29:35.750Z,13.90
2023-05-25T07:32:05.255Z,13.97
2023-05-25T07:34:32.778Z,14.02
2023-05-25T07:37:00.384Z,14.16
2023-05-25T07:39:27.986Z,14.27
2023-05-25T07:41:55.560Z,14.36
2023-05-25T07:44:23.100Z,14.44
2023-05-25T07:46:50.794Z,14.51
2023-05-25T07:49:19.667Z,14.51
2023-05-25T07:51:47.228Z,14.61
2023-05-25T07:54:14.769Z,14.74
2023-05-25T07:56:42.478Z,14.82
2023-05-25T07:59:10.076Z,14.92
2023-05-25T08:01:38.899Z,15.04
2023-05-25T08:04:06.553Z,15.08
2023-05-25T08:06:35.615Z,15.07
2023-05-25T08:09:04.796Z,15.09
2023-05-25T08:11:32.456Z,15.03
2023-05-25T08:14:00.660Z,14.96
2023-05-25T08:16:28.357Z,15.12
2023-05-25T08:18:55.966Z,15.12
2023-05-25T08:21:23.764Z,15.21
2023-05-25T08:23:53.964Z,15.37
2023-05-25T08:28:56.357Z,15.41
2023-05-25T08:31:24.009Z,15.46
2023-05-25T08:33:51.712Z,15.61
2023-05-25T08:36:19.747Z,15.57
2023-05-25T08:38:47.228Z,15.72
2023-05-25T08:41:16.690Z,15.75
2023-05-25T08:43:44.340Z,15.58
2023-05-25T08:46:12.335Z,15.71
2023-05-25T08:48:42.370Z,15.78
2023-05-25T08:51:11.705Z,15.87
2023-05-25T08:53:41.525Z,15.97
2023-05-25T08:56:12.572Z,16.05
2023-05-25T08:58:47.106Z,16.10
2023-05-25T09:01:16.486Z,16.17
2023-05-25T09:03:45.048Z,16.23
2023-05-25T09:06:12.919Z,16.25
2023-05-25T09:08:40.648Z,16.19
2023-05-25T09:11:09.914Z,16.15
2023-05-25T09:13:38.177Z,16.18
2023-05-25T09:16:07.524Z,16.33
2023-05-25T09:18:35.327Z,16.26
2023-05-25T09:21:03.453Z,16.33
2023-05-25T09:23:31.593Z,16.37
2023-05-25T09:25:59.369Z,16.30
2023-05-25T09:28:27.774Z,16.32
2023-05-25T09:30:55.649Z,16.29
2023-05-25T09:33:24.670Z,16.42
2023-05-25T09:35:52.562Z,16.56
2023-05-25T09:38:20.678Z,16.64
2023-05-25T09:40:48.546Z,16.66
2023-05-25T09:43:25.344Z,16.66
2023-05-25T09:45:56.547Z,16.79
2023-05-25T09:48:25.460Z,16.79
2023-05-25T09:50:52.968Z,16.90
2023-05-25T09:53:20.508Z,16.91
2023-05-25T09:55:53.750Z,16.94
2023-05-25T09:58:23.582Z,16.99
2023-05-25T10:00:54.614Z,17.00
2023-05-25T10:03:22.481Z,17.08
2023-05-25T10:05:53.118Z,17.09
2023-05-25T10:08:22.166Z,17.24
2023-05-25T10:10:51.197Z,17.25
2023-05-25T10:13:21.789Z,17.33
2023-05-25T10:15:50.129Z,17.41
2023-05-25T10:18:20.912Z,17.35
2023-05-25T10:20:51.363Z,17.33
2023-05-25T10:23:19.549Z,17.34
2023-05-25T10:25:50.762Z,17.42
2023-05-25T10:28:21.765Z,17.59
2023-05-25T10:30:50.504Z,17.65
2023-05-25T10:33:18.378Z,17.59
2023-05-25T10:36:02.410Z,17.64
2023-05-25T10:38:35.782Z,17.64
2023-05-25T10:41:05.457Z,17.54
2023-05-25T10:43:33.514Z,17.68
2023-05-25T10:46:01.100Z,17.69
2023-05-25T10:48:36.866Z,17.73
2023-05-25T10:51:04.633Z,17.84
2023-05-25T10:53:32.230Z,17.99
2023-05-25T10:56:05.360Z,18.02
2023-05-25T10:58:34.103Z,18.10
2023-05-25T11:01:03.235Z,18.00
2023-05-25T11:03:51.456Z,18.08
2023-05-25T11:06:21.466Z,18.18
2023-05-25T11:08:54.983Z,18.17
2023-05-25T11:11:59.768Z,18.22
2023-05-25T11:14:30.122Z,18.40
2023-05-25T11:17:10.340Z,18.58
2023-05-25T11:19:42.916Z,18.39
2023-05-25T11:22:20.207Z,18.47
2023-05-25T11:24:48.004Z,18.51
2023-05-25T11:27:16.852Z,18.65
2023-05-25T11:29:44.560Z,18.76
2023-05-25T11:32:16.175Z,18.74
2023-05-25T11:34:46.423Z,18.71
2023-05-25T11:37:16.485Z,18.72
2023-05-25T11:39:47.668Z,18.80
2023-05-25T11:42:17.095Z,18.82
2023-05-25T11:44:45.143Z,18.84
2023-05-25T11:47:14.405Z,18.87
2023-05-25T11:49:44.189Z,18.86
2023-05-25T11:52:11.827Z,19.01
2023-05-25T11:54:41.117Z,18.94
2023-05-25T11:57:17.892Z,19.02
2023-05-25T11:59:50.330Z,19.19
2023-05-25T12:02:18.193Z,19.13
2023-05-25T12:04:54.185Z,19.22
2023-05-25T12:07:21.827Z,19.32
2023-05-25T12:09:49.557Z,19.28
2023-05-25T12:12:18.393Z,19.27
2023-05-25T12:14:49.219Z,19.25
2023-05-25T12:17:17.423Z,19.34
2023-05-25T12:19:45.556Z,19.31
2023-05-25T12:22:14.062Z,19.40
2023-05-25T12:24:41.900Z,19.27
2023-05-25T12:27:19.508Z,19.38
2023-05-25T12:29:47.432Z,19.51
2023-05-25T12:32:14.960Z,19.58
2023-05-25T12:34:42.880Z,19.51
2023-05-25T12:37:18.933Z,19.56
2023-05-25T12:39:46.614Z,19.69
2023-05-25T12:42:15.992Z,19.68
2023-05-25T12:44:47.281Z,19.73
2023-05-25T12:47:16.449Z,19.74
2023-05-25T12:49:45.592Z,19.85
2023-05-25T12:52:32.402Z,19.92
2023-05-25T12:55:00.146Z,19.93
2023-05-25T12:57:36.113Z,19.80
2023-05-25T13:00:06.372Z,19.76
2023-05-25T13:02:33.927Z,19.89
2023-05-25T13:05:57.467Z,19.96
2023-05-25T13:08:25.189Z,20.09
2023-05-25T13:10:52.659Z,20.15
2023-05-25T13:13:20.354Z,20.12
2023-05-25T13:15:49.197Z,20.22
2023-05-25T13:18:16.696Z,19.98
2023-05-25T13:20:45.336Z,19.83
2023-05-25T13:23:14.868Z,19.98
2023-05-25T13:25:42.464Z,20.09
2023-05-25T13:28:09.997Z,20.32
2023-05-25T13:30:37.539Z,20.36
2023-05-25T13:33:06.486Z,20.38
2023-05-25T13:35:58.018Z,20.43
2023-05-25T13:38:25.921Z,20.39
2023-05-25T13:40:53.465Z,20.38
2023-05-25T13:43:20.959Z,20.52
2023-05-25T13:45:48.562Z,20.52
2023-05-25T13:48:17.933Z,20.59
2023-05-25T13:50:45.935Z,20.63
2023-05-25T13:53:14.073Z,20.57
2023-05-25T13:55:41.584Z,20.55
2023-05-25T13:58:09.261Z,20.46
2023-05-25T14:00:36.824Z,20.46
2023-05-25T14:03:04.426Z,20.42
2023-05-25T14:05:33.329Z,20.60
2023-05-25T14:08:02.564Z,20.68
2023-05-25T14:10:30.083Z,20.72
2023-05-25T14:12:57.608Z,20.75
2023-05-25T14:15:25.381Z,20.75
2023-05-25T14:17:54.542Z,20.89
2023-05-25T14:20:25.949Z,20.85
2023-05-25T14:22:55.198Z,20.87
2023-05-25T14:25:22.729Z,20.96
2023-05-25T14:27:50.286Z,21.02
2023-05-25T14:30:17.942Z,20.95
2023-05-25T14:32:45.584Z,20.84
2023-05-25T14:35:13.120Z,20.91
2023-05-25T14:37:41.483Z,20.81
2023-05-25T14:40:11.918Z,20.88
2023-05-25T14:42:39.462Z,20.93
2023-05-25T14:45:10.803Z,20.94
2023-05-25T14:47:39.242Z,20.93
2023-05-25T14:50:07.813Z,21.04
2023-05-25T14:52:36.441Z,21.13
2023-05-25T14:55:04.069Z,21.13
2023-05-25T14:57:32.942Z,21.16
2023-05-25T15:00:00.574Z,21.17
2023-05-25T15:02:28.301Z,21.06
2023-05-25T15:04:55.864Z,21.11
2023-05-25T15:07:23.396Z,21.19
2023-05-25T15:09:50.983Z,21.24
2023-05-25T15:12:18.488Z,21.26
2023-05-25T15:14:47.408Z,21.33
2023-05-25T15:17:14.954Z,21.21
2023-05-25T15:19:42.438Z,21.17
2023-05-25T15:22:09.958Z,21.22
2023-05-25T15:24:37.477Z,21.28
2023-05-25T15:27:06.439Z,21.32
2023-05-25T15:29:33.957Z,21.22
2023-05-25T15:32:02.982Z,21.20
2023-05-25T15:34:30.677Z,21.20
2023-05-25T15:36:58.163Z,21.01
2023-05-25T15:39:27.564Z,20.98
2023-05-25T15:41:55.037Z,21.07
2023-05-25T15:44:22.551Z,21.23
2023-05-25T15:46:50.243Z,21.21
2023-05-25T15:49:19.887Z,21.14
2023-05-25T15:51:47.410Z,21.20
2023-05-25T15:54:15.185Z,21.27
2023-05-25T15:56:42.852Z,21.25
2023-05-25T15:59:12.107Z,21.10
2023-05-25T16:01:39.664Z,21.19
2023-05-25T16:04:07.251Z,21.33
2023-05-25T16:06:36.297Z,21.30
2023-05-25T16:09:04.356Z,21.33
2023-05-25T16:11:33.915Z,21.40
2023-05-25T16:14:01.461Z,21.41
2023-05-25T16:16:29.578Z,21.35
2023-05-25T16:18:57.283Z,21.38
2023-05-25T16:21:29.667Z,21.30
2023-05-25T16:23:58.490Z,21.44
2023-05-25T16:26:26.968Z,21.32
2023-05-25T16:28:54.507Z,21.26
2023-05-25T16:31:22.065Z,21.25
2023-05-25T16:33:49.591Z,21.32
2023-05-25T16:36:17.187Z,21.25
2023-05-25T16:38:45.696Z,21.38
2023-05-25T16:41:14.657Z,21.30
2023-05-25T16:43:42.170Z,21.33
2023-05-25T16:46:09.757Z,21.51
2023-05-25T16:48:37.277Z,21.47
2023-05-25T16:51:04.985Z,21.49
2023-05-25T16:53:32.460Z,21.52
2023-05-25T16:56:00.134Z,21.60
2023-05-25T16:58:29.023Z,21.66
2023-05-25T17:00:59.507Z,21.92
2023-05-25T17:03:27.220Z,21.93
2023-05-25T17:05:54.886Z,22.11
2023-05-25T17:08:22.978Z,22.13
2023-05-25T17:10:50.733Z,22.17
2023-05-25T17:13:18.264Z,22.05
2023-05-25T17:15:47.387Z,21.98
2023-05-25T17:18:15.293Z,21.85
2023-05-25T17:20:42.920Z,21.77
2023-05-25T17:23:10.745Z,21.58
2023-05-25T17:25:39.274Z,21.60
2023-05-25T17:28:07.265Z,21.63
2023-05-25T17:30:34.932Z,21.29
2023-05-25T17:33:03.864Z,21.14
2023-05-25T17:35:38.194Z,21.05
2023-05-25T17:38:05.994Z,21.01
2023-05-25T17:40:33.610Z,20.88
2023-05-25T17:43:01.197Z,20.76
2023-05-25T17:45:28.892Z,20.59
2023-05-25T17:47:57.362Z,20.56
2023-05-25T17:50:28.792Z,20.44
2023-05-25T17:52:56.513Z,20.30
2023-05-25T17:55:26.982Z,20.30
2023-05-25T17:57:54.614Z,20.22
2023-05-25T18:00:28.508Z,20.22
2023-05-25T18:02:56.248Z,20.17
2023-05-25T18:05:24.110Z,20.07
2023-05-25T18:07:53.128Z,19.93
2023-05-25T18:10:20.783Z,19.91
2023-05-25T18:12:52.209Z,19.84
2023-05-25T18:15:19.940Z,19.75
2023-05-25T18:17:47.495Z,19.71
2023-05-25T18:20:15.192Z,19.66
2023-05-25T18:22:42.762Z,19.58
2023-05-25T18:25:11.797Z,19.49
2023-05-25T18:27:39.305Z,19.43
2023-05-25T18:30:08.446Z,19.37
2023-05-25T18:32:36.178Z,19.36
2023-05-25T18:35:03.896Z,19.30
2023-05-25T18:37:34.214Z,19.29
2023-05-25T18:40:01.844Z,19.16
2023-05-25T18:42:30.782Z,19.14
2023-05-25T18:44:58.363Z,19.03
2023-05-25T18:47:26.545Z,19.06
2023-05-25T18:49:54.221Z,18.92
2023-05-25T18:52:22.367Z,18.77
2023-05-25T18:54:49.921Z,18.70
2023-05-25T18:57:17.530Z,18.55
2023-05-25T18:59:46.929Z,18.51
2023-05-25T19:02:14.502Z,18.43
2023-05-25T19:04:42.004Z,18.31
2023-05-25T19:07:09.522Z,18.25
2023-05-25T19:09:37.024Z,18.23
2023-05-25T19:12:06.982Z,18.20
2023-05-25T19:14:34.489Z,18.12
2023-05-25T19:17:03.361Z,18.13
2023-05-25T19:19:30.891Z,18.09
2023-05-25T19:21:58.442Z,18.01
2023-05-25T19:24:25.925Z,18.03
2023-05-25T19:26:53.410Z,17.94
2023-05-25T19:29:21.171Z,17.89
2023-05-25T19:31:48.862Z,17.77
2023-05-25T19:34:18.300Z,17.71
2023-05-25T19:36:46.253Z,17.64
2023-05-25T19:39:14.812Z,17.65
2023-05-25T19:41:42.357Z,17.64
2023-05-25T19:44:10.471Z,17.48
2023-05-25T19:46:39.737Z,17.37
2023-05-25T19:49:07.292Z,17.27
2023-05-25T19:51:37.175Z,17.19
2023-05-25T19:54:04.796Z,17.13
2023-05-25T19:56:32.414Z,17.04
2023-05-25T19:59:00.222Z,16.94
2023-05-25T20:01:27.806Z,16.90
2023-05-25T20:03:55.499Z,16.86
2023-05-25T20:06:23.053Z,16.81
2023-05-25T20:08:51.908Z,16.69
2023-05-25T20:11:19.448Z,16.61
2023-05-25T20:13:48.097Z,16.58
2023-05-25T20:16:15.668Z,16.48
2023-05-25T20:18:44.540Z,16.40
2023-05-25T20:21:12.171Z,16.41
2023-05-25T20:23:39.791Z,16.35
2023-05-25T20:26:08.677Z,16.32
2023-05-25T20:28:36.206Z,16.25
2023-05-25T20:31:03.792Z,16.18
2023-05-25T20:33:31.315Z,16.13
2023-05-25T20:35:58.865Z,16.09
2023-05-25T20:38:26.407Z,16.05
2023-05-25T20:40:53.954Z,16.02
2023-05-25T20:43:22.909Z,15.97
2023-05-25T20:45:50.592Z,15.89
2023-05-25T20:48:18.177Z,15.83
2023-05-25T20:50:45.901Z,15.85
2023-05-25T20:53:18.355Z,15.81
2023-05-25T20:55:47.278Z,15.77
2023-05-25T20:58:15.215Z,15.68
2023-05-25T21:00:46.311Z,15.66
2023-05-25T21:03:13.937Z,15.64
2023-05-25T21:05:41.631Z,15.57
2023-05-25T21:08:09.312Z,15.50
2023-05-25T21:10:37.146Z,15.45
2023-05-25T21:13:04.739Z,15.39
2023-05-25T21:15:32.358Z,15.32
2023-05-25T21:18:03.350Z,15.25
2023-05-25T21:20:31.061Z,15.24
2023-05-25T21:22:58.717Z,15.22
2023-05-25T21:25:26.204Z,15.21
2023-05-25T21:27:55.444Z,15.16
2023-05-25T21:30:24.629Z,15.08
2023-05-25T21:32:52.285Z,15.03
2023-05-25T21:35:21.295Z,14.96
2023-05-25T21:37:48.960Z,14.90
2023-05-25T21:40:16.683Z,14.88
2023-05-25T21:42:44.180Z,14.86
2023-05-25T21:45:11.732Z,14.78
2023-05-25T21:47:39.322Z,14.74
2023-05-25T21:52:37.710Z,14.66
2023-05-25T21:55:05.957Z,14.59
2023-05-25T21:57:33.464Z,14.60
2023-05-25T22:00:01.033Z,14.53
2023-05-25T22:02:28.730Z,14.50
2023-05-25T22:04:56.292Z,14.44
2023-05-25T22:07:23.849Z,14.41
2023-05-25T22:09:52.703Z,14.40
2023-05-25T22:12:21.100Z,14.39
2023-05-25T22:14:48.800Z,14.30
2023-05-25T22:17:18.788Z,14.29
2023-05-25T22:19:59.049Z,14.29
2023-05-25T22:22:33.888Z,14.21
2023-05-25T22:25:02.847Z,14.17
2023-05-25T22:27:30.395Z,14.21
2023-05-25T22:29:58.011Z,14.17
2023-05-25T22:32:26.837Z,14.15
2023-05-25T22:34:54.426Z,14.12
2023-05-25T22:37:22.066Z,14.07
2023-05-25T22:39:49.905Z,14.04
2023-05-25T22:42:18.804Z,14.05
2023-05-25T22:44:46.522Z,14.04
2023-05-25T22:47:14.323Z,14.00
2023-05-25T22:49:44.434Z,13.97
2023-05-25T22:52:12.757Z,13.94
2023-05-25T22:54:40.678Z,13.93
2023-05-25T22:57:10.527Z,13.96
2023-05-25T22:59:39.411Z,13.97
2023-05-25T23:02:07.429Z,13.92
2023-05-25T23:04:36.300Z,13.87
2023-05-25T23:07:03.939Z,13.90
2023-05-25T23:09:31.483Z,13.85
2023-05-25T23:11:58.975Z,13.84
2023-05-25T23:14:26.826Z,13.89
2023-05-25T23:16:55.804Z,13.81
2023-05-25T23:19:25.772Z,13.83
2023-05-25T23:21:54.230Z,13.85
2023-05-25T23:24:21.766Z,13.81
2023-05-25T23:26:49.598Z,13.78
2023-05-25T23:29:17.130Z,13.76
2023-05-25T23:31:44.636Z,13.81
2023-05-25T23:34:13.580Z,13.81
2023-05-25T23:36:42.716Z,13.83
2023-05-25T23:39:10.225Z,13.78
2023-05-25T23:41:37.822Z,13.74
2023-05-25T23:44:05.522Z,13.71
2023-05-25T23:46:33.091Z,13.79
2023-05-25T23:49:00.680Z,13.75
2023-05-25T23:51:29.541Z,13.68
2023-05-25T23:53:57.060Z,13.65
2023-05-25T23:56:24.728Z,13.70
2023-05-25T23:58:52.514Z,13.66
